createdAt,value
2018-09-04T00:00:21.081Z,15.88
2018-09-04T00:02:49.680Z,15.85
2018-09-04T00:05:18.287Z,15.81
2018-09-04T00:07:46.914Z,15.79
2018-09-04T00:10:16.350Z,15.74
2018-09-04T00:12:44.961Z,15.69
2018-09-04T00:15:13.542Z,15.65
2018-09-04T00:17:42.135Z,15.62
2018-09-04T00:20:10.752Z,15.58
2018-09-04T00:22:39.376Z,15.60
2018-09-04T00:25:07.978Z,15.56
2018-09-04T00:27:36.577Z,15.56
2018-09-04T00:30:06.002Z,15.56
2018-09-04T00:32:34.597Z,15.55
2018-09-04T00:35:03.174Z,15.53
2018-09-04T00:37:31.828Z,15.51
2018-09-04T00:40:00.464Z,15.47
2018-09-04T00:42:29.085Z,15.44
2018-09-04T00:44:57.724Z,15.44
2018-09-04T00:47:26.319Z,15.42
2018-09-04T00:49:54.890Z,15.41
2018-09-04T00:52:23.488Z,15.40
2018-09-04T00:54:52.063Z,15.38
2018-09-04T00:57:20.645Z,15.36
2018-09-04T00:59:49.240Z,15.32
2018-09-04T01:02:17.827Z,15.31
2018-09-04T01:04:47.240Z,15.31
2018-09-04T01:07:16.197Z,15.30
2018-09-04T01:09:44.805Z,15.29
2018-09-04T01:12:13.398Z,15.29
2018-09-04T01:14:41.969Z,15.25
2018-09-04T01:17:10.570Z,15.24
2018-09-04T01:19:39.221Z,15.20
2018-09-04T01:22:07.800Z,15.21
2018-09-04T01:24:36.451Z,15.20
2018-09-04T01:27:05.104Z,15.19
2018-09-04T01:29:33.696Z,15.24
2018-09-04T01:32:02.293Z,15.26
2018-09-04T01:34:30.909Z,15.24
2018-09-04T01:36:59.500Z,15.20
2018-09-04T01:39:28.106Z,15.18
2018-09-04T01:41:56.673Z,15.17
2018-09-04T01:44:25.289Z,15.13
2018-09-04T01:46:53.872Z,15.09
2018-09-04T01:49:22.531Z,15.08
2018-09-04T01:51:51.106Z,15.07
2018-09-04T01:54:19.718Z,15.02
2018-09-04T01:56:48.303Z,15.01
2018-09-04T01:59:16.911Z,15.02
2018-09-04T02:01:45.540Z,15.00
2018-09-04T02:04:14.166Z,14.94
2018-09-04T02:06:42.757Z,14.91
2018-09-04T02:09:11.362Z,14.90
2018-09-04T02:11:39.941Z,14.90
2018-09-04T02:14:08.592Z,14.91
2018-09-04T02:16:37.210Z,14.88
2018-09-04T02:19:06.379Z,14.87
2018-09-04T02:21:34.955Z,14.87
2018-09-04T02:24:03.549Z,14.84
2018-09-04T02:26:32.146Z,14.84
2018-09-04T02:29:00.748Z,14.86
2018-09-04T02:31:29.310Z,14.88
2018-09-04T02:33:57.901Z,14.88
2018-09-04T02:36:26.561Z,14.90
2018-09-04T02:38:55.205Z,14.93
2018-09-04T02:41:23.842Z,14.97
2018-09-04T02:43:52.441Z,15.01
2018-09-04T02:46:21.018Z,15.04
2018-09-04T02:48:49.600Z,15.07
2018-09-04T02:51:18.221Z,15.11
2018-09-04T02:53:46.879Z,15.18
2018-09-04T02:56:15.465Z,15.25
2018-09-04T02:58:44.102Z,15.29
2018-09-04T03:01:12.695Z,15.35
2018-09-04T03:03:41.276Z,15.39
2018-09-04T03:06:09.870Z,15.46
2018-09-04T03:08:38.444Z,15.51
2018-09-04T03:11:07.025Z,15.56
2018-09-04T03:13:35.669Z,15.61
2018-09-04T03:16:04.262Z,15.64
2018-09-04T03:18:32.845Z,15.67
2018-09-04T03:21:01.449Z,15.72
2018-09-04T03:23:30.029Z,15.79
2018-09-04T03:25:58.640Z,15.80
2018-09-04T03:28:27.209Z,15.82
2018-09-04T03:30:55.855Z,15.83
2018-09-04T03:33:24.420Z,15.83
2018-09-04T03:35:53.084Z,15.81
2018-09-04T03:38:21.648Z,15.78
2018-09-04T03:40:50.232Z,15.77
2018-09-04T03:43:18.796Z,15.77
2018-09-04T03:45:47.385Z,15.76
2018-09-04T03:48:16.003Z,15.77
2018-09-04T03:50:44.643Z,15.79
2018-09-04T03:53:13.209Z,15.79
2018-09-04T03:55:41.785Z,15.82
2018-09-04T03:58:10.359Z,15.84
2018-09-04T04:00:38.957Z,15.87
2018-09-04T04:03:07.537Z,15.91
2018-09-04T04:05:36.248Z,15.95
2018-09-04T04:08:04.844Z,15.97
2018-09-04T04:10:33.438Z,15.99
2018-09-04T04:13:02.561Z,16.02
2018-09-04T04:15:31.159Z,16.05
2018-09-04T04:17:59.721Z,16.06
2018-09-04T04:20:28.374Z,16.06
2018-09-04T04:22:57.006Z,16.05
2018-09-04T04:25:25.740Z,16.05
2018-09-04T04:27:54.311Z,16.02
2018-09-04T04:30:22.893Z,16.05
2018-09-04T04:32:51.517Z,16.05
2018-09-04T04:35:20.185Z,16.08
2018-09-04T04:37:48.794Z,16.09
2018-09-04T04:40:17.421Z,16.12
2018-09-04T04:42:45.989Z,16.11
2018-09-04T04:45:14.574Z,16.15
2018-09-04T04:47:48.521Z,16.18
2018-09-04T04:50:17.870Z,16.21
2018-09-04T04:52:46.436Z,16.23
2018-09-04T04:55:15.026Z,16.23
2018-09-04T04:57:43.605Z,16.21
2018-09-04T05:00:12.276Z,16.24
2018-09-04T05:02:40.882Z,16.27
2018-09-04T05:05:09.494Z,16.32
2018-09-04T05:07:38.087Z,16.36
2018-09-04T05:10:07.323Z,16.38
2018-09-04T05:12:35.970Z,16.40
2018-09-04T05:15:04.558Z,16.39
2018-09-04T05:17:33.208Z,16.39
2018-09-04T05:20:01.838Z,16.40
2018-09-04T05:22:30.508Z,16.40
2018-09-04T05:24:59.050Z,16.42
2018-09-04T05:27:27.658Z,16.42
2018-09-04T05:29:56.225Z,16.41
2018-09-04T05:33:29.925Z,16.46
2018-09-04T05:35:59.481Z,16.53
2018-09-04T05:38:28.059Z,16.53
2018-09-04T05:40:56.667Z,16.56
2018-09-04T05:43:29.769Z,16.57
2018-09-04T05:46:00.639Z,16.64
2018-09-04T05:48:29.257Z,16.70
2018-09-04T05:50:57.861Z,16.69
2018-09-04T05:53:26.484Z,16.70
2018-09-04T05:55:55.137Z,16.71
2018-09-04T05:58:23.710Z,16.73
2018-09-04T06:00:56.271Z,16.73
2018-09-04T06:03:24.863Z,16.76
2018-09-04T06:05:53.459Z,16.79
2018-09-04T06:08:22.313Z,16.81
2018-09-04T06:10:50.897Z,16.83
2018-09-04T06:13:19.494Z,16.78
2018-09-04T06:15:48.081Z,16.68
2018-09-04T06:18:16.690Z,16.70
2018-09-04T06:20:45.270Z,16.79
2018-09-04T06:23:13.860Z,16.91
2018-09-04T06:25:42.718Z,17.06
2018-09-04T06:28:11.313Z,17.17
2018-09-04T06:30:39.972Z,17.19
2018-09-04T06:33:08.568Z,17.26
2018-09-04T06:35:37.150Z,17.31
2018-09-04T06:38:06.302Z,17.46
2018-09-04T06:40:34.876Z,17.58
2018-09-04T06:43:03.471Z,17.66
2018-09-04T06:45:32.055Z,17.78
2018-09-04T06:48:00.666Z,17.93
2018-09-04T06:50:29.278Z,18.10
2018-09-04T06:52:57.900Z,18.25
2018-09-04T06:55:26.486Z,18.31
2018-09-04T06:57:55.160Z,18.33
2018-09-04T07:00:23.792Z,18.33
2018-09-04T07:02:52.384Z,18.29
2018-09-04T07:05:20.990Z,18.24
2018-09-04T07:07:49.597Z,18.30
2018-09-04T07:10:18.218Z,18.23
2018-09-04T07:12:46.846Z,18.18
2018-09-04T07:15:15.436Z,18.22
2018-09-04T07:17:44.062Z,18.35
2018-09-04T07:20:12.688Z,18.49
2018-09-04T07:22:41.319Z,18.58
2018-09-04T07:25:09.951Z,18.66
2018-09-04T07:27:38.612Z,18.74
2018-09-04T07:30:07.510Z,18.90
2018-09-04T07:32:36.111Z,18.82
2018-09-04T07:35:04.721Z,18.89
2018-09-04T07:37:33.323Z,19.02
2018-09-04T07:40:01.904Z,19.14
2018-09-04T07:42:30.498Z,19.20
2018-09-04T07:44:59.081Z,19.27
2018-09-04T07:47:27.686Z,19.38
2018-09-04T07:49:56.241Z,19.53
2018-09-04T07:52:24.833Z,19.67
2018-09-04T07:54:53.411Z,19.81
2018-09-04T07:57:22.021Z,20.01
2018-09-04T07:59:50.586Z,20.12
2018-09-04T08:02:19.145Z,19.97
2018-09-04T08:04:47.725Z,19.73
2018-09-04T08:07:16.289Z,19.88
2018-09-04T08:09:44.893Z,20.05
2018-09-04T08:12:13.461Z,20.28
2018-09-04T08:14:42.111Z,20.42
2018-09-04T08:17:11.592Z,20.52
2018-09-04T08:19:40.189Z,20.66
2018-09-04T08:22:08.809Z,20.48
2018-09-04T08:24:37.415Z,20.61
2018-09-04T08:27:06.125Z,20.63
2018-09-04T08:29:34.763Z,20.56
2018-09-04T08:32:03.353Z,20.45
2018-09-04T08:34:31.949Z,20.37
2018-09-04T08:37:00.533Z,20.36
2018-09-04T08:39:29.120Z,20.58
2018-09-04T08:41:57.687Z,20.62
2018-09-04T08:44:26.290Z,20.64
2018-09-04T08:46:54.855Z,20.79
2018-09-04T08:49:23.457Z,20.74
2018-09-04T08:51:52.013Z,20.90
2018-09-04T08:54:20.659Z,21.30
2018-09-04T08:56:49.207Z,21.75
2018-09-04T08:59:17.809Z,22.28
2018-09-04T09:01:46.382Z,22.68
2018-09-04T09:04:14.976Z,22.95
2018-09-04T09:06:43.520Z,23.27
2018-09-04T09:09:12.096Z,22.99
2018-09-04T09:11:40.653Z,22.96
2018-09-04T09:14:09.245Z,22.99
2018-09-04T09:16:38.206Z,23.09
2018-09-04T09:19:06.906Z,23.23
2018-09-04T09:21:35.454Z,23.29
2018-09-04T09:24:04.041Z,23.17
2018-09-04T09:26:32.631Z,23.04
2018-09-04T09:29:01.221Z,22.78
2018-09-04T09:31:29.854Z,22.35
2018-09-04T09:33:58.438Z,22.05
2018-09-04T09:36:27.065Z,21.84
2018-09-04T09:38:55.652Z,21.66
2018-09-04T09:41:24.213Z,21.58
2018-09-04T09:43:52.793Z,21.61
2018-09-04T09:46:21.430Z,21.68
2018-09-04T09:48:50.016Z,21.77
2018-09-04T09:51:18.602Z,21.82
2018-09-04T09:53:47.202Z,21.79
2018-09-04T09:56:15.812Z,21.84
2018-09-04T09:58:44.433Z,21.95
2018-09-04T10:01:18.366Z,22.33
2018-09-04T10:03:52.205Z,22.66
2018-09-04T10:06:21.478Z,22.92
2018-09-04T10:08:50.100Z,23.06
2018-09-04T10:11:18.688Z,23.15
2018-09-04T10:13:47.937Z,23.09
2018-09-04T10:16:16.937Z,23.04
2018-09-04T10:18:45.535Z,22.87
2018-09-04T10:21:14.239Z,22.79
2018-09-04T10:23:42.875Z,23.07
2018-09-04T10:26:11.525Z,23.57
2018-09-04T10:28:40.111Z,24.00
2018-09-04T10:31:08.764Z,24.16
2018-09-04T10:33:37.367Z,24.41
2018-09-04T10:36:06.021Z,24.41
2018-09-04T10:38:34.631Z,24.42
2018-09-04T10:41:04.426Z,24.81
2018-09-04T10:43:33.407Z,25.05
2018-09-04T10:46:04.214Z,25.18
2018-09-04T10:48:32.775Z,25.58
2018-09-04T10:51:01.584Z,25.87
2018-09-04T10:53:30.155Z,25.95
2018-09-04T10:55:58.816Z,25.66
2018-09-04T10:58:27.402Z,24.85
2018-09-04T11:00:55.995Z,24.70
2018-09-04T11:03:24.593Z,24.95
2018-09-04T11:05:53.313Z,25.33
2018-09-04T11:08:21.901Z,25.77
2018-09-04T11:10:50.685Z,25.92
2018-09-04T11:13:19.379Z,25.80
2018-09-04T11:15:48.023Z,25.33
2018-09-04T11:18:16.593Z,24.75
2018-09-04T11:20:45.191Z,24.51
2018-09-04T11:23:13.764Z,24.52
2018-09-04T11:25:42.382Z,24.54
2018-09-04T11:28:10.957Z,24.67
2018-09-04T11:30:39.603Z,24.61
2018-09-04T11:33:08.233Z,24.62
2018-09-04T11:35:36.895Z,24.45
2018-09-04T11:38:05.747Z,24.17
2018-09-04T11:40:34.392Z,24.07
2018-09-04T11:43:02.983Z,24.56
2018-09-04T11:45:31.599Z,25.22
2018-09-04T11:48:00.870Z,25.65
2018-09-04T11:50:29.602Z,25.87
2018-09-04T11:52:58.188Z,25.81
2018-09-04T11:55:26.818Z,25.79
2018-09-04T11:57:55.392Z,25.64
2018-09-04T12:00:30.204Z,25.64
2018-09-04T12:02:58.841Z,25.81
2018-09-04T12:05:27.402Z,25.78
2018-09-04T12:07:55.975Z,25.71
2018-09-04T12:10:24.546Z,25.52
2018-09-04T12:12:53.202Z,25.59
2018-09-04T12:15:21.770Z,25.76
2018-09-04T12:17:50.356Z,25.81
2018-09-04T12:20:55.724Z,25.72
2018-09-04T12:23:24.238Z,25.78
2018-09-04T12:25:56.141Z,25.87
2018-09-04T12:28:24.754Z,26.02
2018-09-04T12:30:53.345Z,26.05
2018-09-04T12:33:21.908Z,26.13
2018-09-04T12:35:51.401Z,26.18
2018-09-04T12:38:21.594Z,26.12
2018-09-04T12:40:50.252Z,25.84
2018-09-04T12:43:18.870Z,25.42
2018-09-04T12:45:52.684Z,25.22
2018-09-04T12:48:23.678Z,25.02
2018-09-04T12:50:53.207Z,24.65
2018-09-04T12:53:22.463Z,24.83
2018-09-04T12:55:51.114Z,25.14
2018-09-04T12:58:19.725Z,24.96
2018-09-04T13:00:50.402Z,24.95
2018-09-04T13:03:20.565Z,24.96
2018-09-04T13:05:49.141Z,25.07
2018-09-04T13:08:18.625Z,25.21
2018-09-04T13:10:47.166Z,25.24
2018-09-04T13:13:15.777Z,25.02
2018-09-04T13:15:46.366Z,24.87
2018-09-04T13:18:15.004Z,24.99
2018-09-04T13:20:43.800Z,25.09
2018-09-04T13:23:12.401Z,25.24
2018-09-04T13:25:41.048Z,25.60
2018-09-04T13:28:10.001Z,25.86
2018-09-04T13:30:39.076Z,26.14
2018-09-04T13:33:08.025Z,26.35
2018-09-04T13:35:36.983Z,26.52
2018-09-04T13:38:05.622Z,26.55
2018-09-04T13:40:34.205Z,26.49
2018-09-04T13:43:02.856Z,26.22
2018-09-04T13:45:31.477Z,26.14
2018-09-04T13:48:01.281Z,26.19
2018-09-04T13:50:30.241Z,26.22
2018-09-04T13:52:58.955Z,26.28
2018-09-04T13:55:27.509Z,26.32
2018-09-04T13:57:56.076Z,26.31
2018-09-04T14:00:25.505Z,26.29
2018-09-04T14:02:54.151Z,26.35
2018-09-04T14:05:22.754Z,26.53
2018-09-04T14:07:51.333Z,26.64
2018-09-04T14:10:19.889Z,26.63
2018-09-04T14:12:48.490Z,26.65
2018-09-04T14:15:17.092Z,26.71
2018-09-04T14:17:45.669Z,26.59
2018-09-04T14:20:14.238Z,26.32
2018-09-04T14:22:42.827Z,26.11
2018-09-04T14:25:11.446Z,26.02
2018-09-04T14:27:40.043Z,25.39
2018-09-04T14:30:16.144Z,25.19
2018-09-04T14:32:37.281Z,24.95
2018-09-04T14:35:06.720Z,25.24
2018-09-04T14:37:35.309Z,25.45
2018-09-04T14:40:03.893Z,25.57
2018-09-04T14:42:32.485Z,25.45
2018-09-04T14:45:01.071Z,25.30
2018-09-04T14:47:29.657Z,25.31
2018-09-04T14:49:58.249Z,25.19
2018-09-04T14:52:26.812Z,25.11
2018-09-04T14:54:55.390Z,24.99
2018-09-04T14:57:23.963Z,25.18
2018-09-04T14:59:52.641Z,25.31
2018-09-04T15:02:21.346Z,25.13
2018-09-04T15:04:49.918Z,25.28
2018-09-04T15:07:18.556Z,25.14
2018-09-04T15:09:47.101Z,25.16
2018-09-04T15:12:15.659Z,25.01
2018-09-04T15:14:44.256Z,24.74
2018-09-04T15:17:12.851Z,24.67
2018-09-04T15:19:41.451Z,24.66
2018-09-04T15:22:10.046Z,24.73
2018-09-04T15:24:38.650Z,24.81
2018-09-04T15:27:07.241Z,24.77
2018-09-04T15:29:35.816Z,24.51
2018-09-04T15:32:04.449Z,24.38
2018-09-04T15:34:33.029Z,24.41
2018-09-04T15:37:01.678Z,24.43
2018-09-04T15:39:30.251Z,24.37
2018-09-04T15:41:58.862Z,24.13
2018-09-04T15:44:27.482Z,24.16
2018-09-04T15:46:56.037Z,24.11
2018-09-04T15:49:29.884Z,24.06
2018-09-04T15:51:58.423Z,23.94
2018-09-04T15:54:27.000Z,23.85
2018-09-04T15:56:55.579Z,23.86
2018-09-04T15:59:24.195Z,23.82
2018-09-04T16:01:52.764Z,23.79
2018-09-04T16:04:21.342Z,23.73
2018-09-04T16:06:49.922Z,23.64
2018-09-04T16:09:18.506Z,23.61
2018-09-04T16:11:47.065Z,23.56
2018-09-04T16:14:15.680Z,23.51
2018-09-04T16:16:44.336Z,23.51
2018-09-04T16:19:12.919Z,23.48
2018-09-04T16:21:41.479Z,23.46
2018-09-04T16:24:10.128Z,23.41
2018-09-04T16:26:38.718Z,23.35
2018-09-04T16:29:07.316Z,23.30
2018-09-04T16:31:35.889Z,23.22
2018-09-04T16:34:04.540Z,23.12
2018-09-04T16:36:33.121Z,23.10
2018-09-04T16:39:01.815Z,23.05
2018-09-04T16:41:30.444Z,22.98
2018-09-04T16:43:59.009Z,22.91
2018-09-04T16:46:28.008Z,22.83
2018-09-04T16:48:56.668Z,22.73
2018-09-04T16:51:25.265Z,22.65
2018-09-04T16:53:53.840Z,22.58
2018-09-04T16:56:22.439Z,22.52
2018-09-04T16:58:51.030Z,22.45
2018-09-04T17:01:19.691Z,22.37
2018-09-04T17:03:48.244Z,22.33
2018-09-04T17:06:16.846Z,22.23
2018-09-04T17:08:45.421Z,22.19
2018-09-04T17:11:14.021Z,22.10
2018-09-04T17:13:42.588Z,22.00
2018-09-04T17:16:11.189Z,21.92
2018-09-04T17:18:39.760Z,21.84
2018-09-04T17:21:08.359Z,21.73
2018-09-04T17:23:36.913Z,21.62
2018-09-04T17:26:06.172Z,21.51
2018-09-04T17:28:34.718Z,21.39
2018-09-04T17:31:03.309Z,21.28
2018-09-04T17:33:31.885Z,21.15
2018-09-04T17:36:00.471Z,21.06
2018-09-04T17:38:29.034Z,20.95
2018-09-04T17:40:57.620Z,20.81
2018-09-04T17:43:26.186Z,20.68
2018-09-04T17:45:54.860Z,20.55
2018-09-04T17:48:23.478Z,20.44
2018-09-04T17:50:52.090Z,20.33
2018-09-04T17:53:20.673Z,20.20
2018-09-04T17:55:49.266Z,20.08
2018-09-04T17:58:17.823Z,19.94
2018-09-04T18:00:46.564Z,19.81
2018-09-04T18:03:15.108Z,19.71
2018-09-04T18:05:43.754Z,19.59
2018-09-04T18:08:12.339Z,19.44
2018-09-04T18:10:40.977Z,19.34
2018-09-04T18:13:09.546Z,19.25
2018-09-04T18:15:38.149Z,19.16
2018-09-04T18:18:06.745Z,19.12
2018-09-04T18:20:35.355Z,19.08
2018-09-04T18:23:03.930Z,19.05
2018-09-04T18:25:32.531Z,18.98
2018-09-04T18:28:01.101Z,18.90
2018-09-04T18:30:29.698Z,18.78
2018-09-04T18:32:58.268Z,18.61
2018-09-04T18:35:26.996Z,18.47
2018-09-04T18:37:55.573Z,18.35
2018-09-04T18:40:24.159Z,18.20
2018-09-04T18:42:52.737Z,18.14
2018-09-04T18:45:32.408Z,18.12
2018-09-04T18:48:00.987Z,18.07
2018-09-04T18:50:29.621Z,18.08
2018-09-04T18:52:58.221Z,18.07
2018-09-04T18:55:26.861Z,18.07
2018-09-04T18:57:55.480Z,18.03
2018-09-04T19:00:24.052Z,18.00
2018-09-04T19:02:52.629Z,17.95
2018-09-04T19:05:21.214Z,17.90
2018-09-04T19:07:49.792Z,17.86
2018-09-04T19:10:18.372Z,17.78
2018-09-04T19:12:46.961Z,17.70
2018-09-04T19:15:15.542Z,17.63
2018-09-04T19:17:44.138Z,17.55
2018-09-04T19:20:12.797Z,17.50
2018-09-04T19:22:41.373Z,17.46
2018-09-04T19:25:09.968Z,17.40
2018-09-04T19:27:38.585Z,17.34
2018-09-04T19:30:07.233Z,17.30
2018-09-04T19:32:35.901Z,17.26
2018-09-04T19:35:04.520Z,17.19
2018-09-04T19:37:33.135Z,17.14
2018-09-04T19:40:01.814Z,17.08
2018-09-04T19:42:30.448Z,17.02
2018-09-04T19:44:59.051Z,16.95
2018-09-04T19:47:27.643Z,16.88
2018-09-04T19:49:56.348Z,16.81
2018-09-04T19:52:24.901Z,16.73
2018-09-04T19:54:53.470Z,16.67
2018-09-04T19:57:22.084Z,16.60
2018-09-04T19:59:50.649Z,16.54
2018-09-04T20:02:19.308Z,16.47
2018-09-04T20:04:47.941Z,16.44
2018-09-04T20:07:16.617Z,16.43
2018-09-04T20:09:45.205Z,16.37
2018-09-04T20:12:13.813Z,16.34
2018-09-04T20:14:42.402Z,16.27
2018-09-04T20:17:10.989Z,16.24
2018-09-04T20:19:39.557Z,16.19
2018-09-04T20:22:09.145Z,16.13
2018-09-04T20:24:37.753Z,16.08
2018-09-04T20:27:06.502Z,16.02
2018-09-04T20:29:35.145Z,15.94
2018-09-04T20:32:03.720Z,15.86
2018-09-04T20:34:32.356Z,15.83
2018-09-04T20:37:00.979Z,15.80
2018-09-04T20:39:29.561Z,15.74
2018-09-04T20:41:58.207Z,15.69
2018-09-04T20:44:26.806Z,15.66
2018-09-04T20:46:55.463Z,15.67
2018-09-04T20:49:24.039Z,15.66
2018-09-04T20:51:52.646Z,15.60
2018-09-04T20:54:21.299Z,15.54
2018-09-04T20:57:36.804Z,15.40
2018-09-04T21:00:19.086Z,15.16
2018-09-04T21:02:59.639Z,15.03
2018-09-04T21:05:39.392Z,14.90
2018-09-04T21:08:58.592Z,14.84
2018-09-04T21:11:27.196Z,14.83
2018-09-04T21:13:55.794Z,14.85
2018-09-04T21:16:24.383Z,14.81
2018-09-04T21:18:53.132Z,14.76
2018-09-04T21:21:22.051Z,14.72
2018-09-04T21:23:50.653Z,14.70
2018-09-04T21:26:19.243Z,14.64
2018-09-04T21:28:47.898Z,14.58
2018-09-04T21:31:16.474Z,14.55
2018-09-04T21:33:45.064Z,14.48
2018-09-04T21:36:13.617Z,14.44
2018-09-04T21:38:42.266Z,14.31
2018-09-04T21:41:10.830Z,14.13
2018-09-04T21:43:39.475Z,13.98
2018-09-04T21:46:08.104Z,13.90
2018-09-04T21:48:36.899Z,13.79
2018-09-04T21:51:06.258Z,13.68
2018-09-04T21:53:34.870Z,13.63
2018-09-04T21:56:03.462Z,13.61
2018-09-04T21:58:32.057Z,13.62
2018-09-04T22:01:00.763Z,13.68
2018-09-04T22:03:29.336Z,13.74
2018-09-04T22:05:57.925Z,13.67
2018-09-04T22:08:26.490Z,13.56
2018-09-04T22:10:55.078Z,13.50
2018-09-04T22:13:23.654Z,13.39
2018-09-04T22:15:52.257Z,13.25
2018-09-04T22:18:20.830Z,13.23
2018-09-04T22:20:49.486Z,13.23
2018-09-04T22:23:18.083Z,13.13
2018-09-04T22:25:46.678Z,13.01
2018-09-04T22:28:15.549Z,12.95
2018-09-04T22:30:44.133Z,12.92
2018-09-04T22:33:12.679Z,12.86
2018-09-04T22:35:41.244Z,12.87
2018-09-04T22:38:09.819Z,12.87
2018-09-04T22:40:38.397Z,12.95
2018-09-04T22:43:06.964Z,13.07
2018-09-04T22:45:35.552Z,13.13
2018-09-04T22:48:04.111Z,13.13
2018-09-04T22:50:37.945Z,13.09
2018-09-04T22:53:06.519Z,13.07
2018-09-04T22:55:35.092Z,13.02
2018-09-04T22:58:03.749Z,12.90
2018-09-04T23:00:32.309Z,12.69
2018-09-04T23:03:00.860Z,12.53
2018-09-04T23:05:29.442Z,12.41
2018-09-04T23:07:58.002Z,12.31
2018-09-04T23:10:26.581Z,12.31
2018-09-04T23:12:55.150Z,12.38
2018-09-04T23:15:23.732Z,12.41
2018-09-04T23:17:52.286Z,12.42
2018-09-04T23:20:20.856Z,12.40
2018-09-04T23:22:49.406Z,12.37
2018-09-04T23:25:18.030Z,12.36
2018-09-04T23:27:46.597Z,12.36
2018-09-04T23:30:15.192Z,12.33
2018-09-04T23:32:44.685Z,12.34
2018-09-04T23:35:13.271Z,12.35
2018-09-04T23:37:41.861Z,12.35
2018-09-04T23:40:10.528Z,12.35
2018-09-04T23:42:39.111Z,12.31
2018-09-04T23:45:07.764Z,12.27
2018-09-04T23:47:36.323Z,12.25
2018-09-04T23:50:06.941Z,12.10
2018-09-04T23:52:35.512Z,11.95
2018-09-04T23:55:04.150Z,11.84
2018-09-04T23:57:32.737Z,11.80
